sensor_id;sensor_type;location;lat;lon;timestamp;P1;durP1;ratioP1;P2;durP2;ratioP2
9771;SDS011;4925;52.588;13.370;2023-07-02T00:01:40;1.97;;;1.60;;
9771;SDS011;4925;52.588;13.370;2023-07-02T00:04:06;2.30;;;1.60;;
9771;SDS011;4925;52.588;13.370;2023-07-02T00:06:34;4.37;;;1.80;;
9771;SDS011;4925;52.588;13.370;2023-07-02T00:09:05;3.00;;;1.57;;
9771;SDS011;4925;52.588;13.370;2023-07-02T00:11:31;1.70;;;1.60;;
9771;SDS011;4925;52.588;13.370;2023-07-02T00:13:57;1.97;;;1.87;;
9771;SDS011;4925;52.588;13.370;2023-07-02T00:16:22;2.97;;;1.80;;
9771;SDS011;4925;52.588;13.370;2023-07-02T00:18:48;3.50;;;1.40;;
9771;SDS011;4925;52.588;13.370;2023-07-02T00:21:17;1.67;;;1.50;;
9771;SDS011;4925;52.588;13.370;2023-07-02T00:23:44;1.63;;;1.53;;
9771;SDS011;4925;52.588;13.370;2023-07-02T00:26:09;2.00;;;1.83;;
9771;SDS011;4925;52.588;13.370;2023-07-02T00:28:35;2.00;;;1.90;;
9771;SDS011;4925;52.588;13.370;2023-07-02T00:31:01;2.30;;;1.90;;
9771;SDS011;4925;52.588;13.370;2023-07-02T00:33:27;1.70;;;1.70;;
9771;SDS011;4925;52.588;13.370;2023-07-02T00:35:54;3.37;;;1.93;;
9771;SDS011;4925;52.588;13.370;2023-07-02T00:38:20;2.13;;;1.80;;
9771;SDS011;4925;52.588;13.370;2023-07-02T00:40:46;2.07;;;1.97;;
9771;SDS011;4925;52.588;13.370;2023-07-02T00:43:12;2.20;;;2.03;;
9771;SDS011;4925;52.588;13.370;2023-07-02T00:45:41;2.13;;;2.00;;
9771;SDS011;4925;52.588;13.370;2023-07-02T00:48:06;3.67;;;1.80;;
9771;SDS011;4925;52.588;13.370;2023-07-02T00:50:32;1.83;;;1.83;;
9771;SDS011;4925;52.588;13.370;2023-07-02T00:52:58;3.00;;;2.83;;
9771;SDS011;4925;52.588;13.370;2023-07-02T00:55:24;2.37;;;2.27;;
9771;SDS011;4925;52.588;13.370;2023-07-02T00:57:50;2.17;;;2.07;;
9771;SDS011;4925;52.588;13.370;2023-07-02T01:00:16;2.40;;;2.13;;
9771;SDS011;4925;52.588;13.370;2023-07-02T01:02:42;2.77;;;2.30;;
9771;SDS011;4925;52.588;13.370;2023-07-02T01:05:15;2.17;;;2.07;;
9771;SDS011;4925;52.588;13.370;2023-07-02T01:07:41;3.83;;;3.03;;
9771;SDS011;4925;52.588;13.370;2023-07-02T01:10:06;3.10;;;2.10;;
9771;SDS011;4925;52.588;13.370;2023-07-02T01:12:33;2.63;;;2.43;;
9771;SDS011;4925;52.588;13.370;2023-07-02T01:15:00;4.33;;;2.50;;
9771;SDS011;4925;52.588;13.370;2023-07-02T01:17:30;2.50;;;2.40;;
9771;SDS011;4925;52.588;13.370;2023-07-02T01:20:05;4.43;;;2.83;;
9771;SDS011;4925;52.588;13.370;2023-07-02T01:22:32;2.90;;;2.70;;
9771;SDS011;4925;52.588;13.370;2023-07-02T01:24:58;3.17;;;2.87;;
9771;SDS011;4925;52.588;13.370;2023-07-02T01:27:24;3.20;;;2.90;;
9771;SDS011;4925;52.588;13.370;2023-07-02T01:29:54;3.13;;;2.53;;
9771;SDS011;4925;52.588;13.370;2023-07-02T01:32:19;3.53;;;3.20;;
9771;SDS011;4925;52.588;13.370;2023-07-02T01:34:46;4.97;;;2.80;;
9771;SDS011;4925;52.588;13.370;2023-07-02T01:37:17;3.50;;;3.17;;
9771;SDS011;4925;52.588;13.370;2023-07-02T01:39:43;3.43;;;3.13;;
9771;SDS011;4925;52.588;13.370;2023-07-02T01:42:10;5.03;;;3.50;;
9771;SDS011;4925;52.588;13.370;2023-07-02T01:44:37;3.00;;;2.80;;
9771;SDS011;4925;52.588;13.370;2023-07-02T01:47:03;4.00;;;3.27;;
9771;SDS011;4925;52.588;13.370;2023-07-02T01:49:30;5.13;;;3.28;;
9771;SDS011;4925;52.588;13.370;2023-07-02T01:51:56;4.77;;;3.50;;
9771;SDS011;4925;52.588;13.370;2023-07-02T01:54:22;3.07;;;2.80;;
9771;SDS011;4925;52.588;13.370;2023-07-02T01:56:49;3.87;;;3.57;;
9771;SDS011;4925;52.588;13.370;2023-07-02T01:59:15;4.17;;;3.10;;
9771;SDS011;4925;52.588;13.370;2023-07-02T02:01:44;4.07;;;3.53;;
9771;SDS011;4925;52.588;13.370;2023-07-02T02:04:10;4.67;;;4.00;;
9771;SDS011;4925;52.588;13.370;2023-07-02T02:06:37;5.30;;;4.17;;
9771;SDS011;4925;52.588;13.370;2023-07-02T02:09:03;5.30;;;3.80;;
9771;SDS011;4925;52.588;13.370;2023-07-02T02:11:33;4.20;;;3.90;;
9771;SDS011;4925;52.588;13.370;2023-07-02T02:13:59;6.40;;;4.07;;
9771;SDS011;4925;52.588;13.370;2023-07-02T02:16:26;5.47;;;4.00;;
9771;SDS011;4925;52.588;13.370;2023-07-02T02:18:52;5.53;;;4.47;;
9771;SDS011;4925;52.588;13.370;2023-07-02T02:21:19;6.50;;;4.77;;
9771;SDS011;4925;52.588;13.370;2023-07-02T02:23:45;5.57;;;4.17;;
9771;SDS011;4925;52.588;13.370;2023-07-02T02:26:11;6.33;;;4.87;;
9771;SDS011;4925;52.588;13.370;2023-07-02T02:28:37;4.57;;;4.07;;
9771;SDS011;4925;52.588;13.370;2023-07-02T02:31:03;6.30;;;4.43;;
9771;SDS011;4925;52.588;13.370;2023-07-02T02:33:29;4.67;;;4.20;;
9771;SDS011;4925;52.588;13.370;2023-07-02T02:35:55;4.60;;;4.10;;
9771;SDS011;4925;52.588;13.370;2023-07-02T02:38:20;4.20;;;3.80;;
9771;SDS011;4925;52.588;13.370;2023-07-02T02:40:46;6.60;;;4.40;;
9771;SDS011;4925;52.588;13.370;2023-07-02T02:43:12;4.20;;;3.80;;
9771;SDS011;4925;52.588;13.370;2023-07-02T02:45:38;4.63;;;4.17;;
9771;SDS011;4925;52.588;13.370;2023-07-02T02:48:04;4.70;;;4.30;;
9771;SDS011;4925;52.588;13.370;2023-07-02T02:50:30;4.13;;;3.83;;
9771;SDS011;4925;52.588;13.370;2023-07-02T02:52:55;8.10;;;4.20;;
9771;SDS011;4925;52.588;13.370;2023-07-02T02:55:21;3.97;;;3.67;;
9771;SDS011;4925;52.588;13.370;2023-07-02T02:57:47;5.53;;;3.97;;
9771;SDS011;4925;52.588;13.370;2023-07-02T03:00:12;4.90;;;4.40;;
9771;SDS011;4925;52.588;13.370;2023-07-02T03:02:38;4.23;;;3.67;;
9771;SDS011;4925;52.588;13.370;2023-07-02T03:05:05;4.47;;;4.17;;
9771;SDS011;4925;52.588;13.370;2023-07-02T03:07:31;7.60;;;4.80;;
9771;SDS011;4925;52.588;13.370;2023-07-02T03:09:57;4.50;;;4.10;;
9771;SDS011;4925;52.588;13.370;2023-07-02T03:12:25;5.90;;;4.40;;
9771;SDS011;4925;52.588;13.370;2023-07-02T03:14:51;5.17;;;4.13;;
9771;SDS011;4925;52.588;13.370;2023-07-02T03:17:19;5.33;;;3.77;;
9771;SDS011;4925;52.588;13.370;2023-07-02T03:19:45;4.20;;;3.50;;
9771;SDS011;4925;52.588;13.370;2023-07-02T03:22:11;4.00;;;3.70;;
9771;SDS011;4925;52.588;13.370;2023-07-02T03:24:37;5.13;;;4.10;;
9771;SDS011;4925;52.588;13.370;2023-07-02T03:27:03;4.70;;;4.20;;
9771;SDS011;4925;52.588;13.370;2023-07-02T03:29:29;4.60;;;4.13;;
9771;SDS011;4925;52.588;13.370;2023-07-02T03:31:54;4.30;;;3.93;;
9771;SDS011;4925;52.588;13.370;2023-07-02T03:34:20;6.33;;;4.17;;
9771;SDS011;4925;52.588;13.370;2023-07-02T03:36:50;6.40;;;4.10;;
9771;SDS011;4925;52.588;13.370;2023-07-02T03:39:16;4.43;;;4.03;;
9771;SDS011;4925;52.588;13.370;2023-07-02T03:41:42;3.97;;;3.60;;
9771;SDS011;4925;52.588;13.370;2023-07-02T03:44:08;7.47;;;3.97;;
9771;SDS011;4925;52.588;13.370;2023-07-02T03:46:34;6.43;;;3.70;;
9771;SDS011;4925;52.588;13.370;2023-07-02T03:49:00;3.97;;;3.57;;
9771;SDS011;4925;52.588;13.370;2023-07-02T03:51:31;4.57;;;3.60;;
9771;SDS011;4925;52.588;13.370;2023-07-02T03:54:00;3.97;;;3.67;;
9771;SDS011;4925;52.588;13.370;2023-07-02T03:56:26;3.83;;;3.40;;
9771;SDS011;4925;52.588;13.370;2023-07-02T03:58:52;5.73;;;3.47;;
9771;SDS011;4925;52.588;13.370;2023-07-02T04:01:18;5.53;;;3.60;;
9771;SDS011;4925;52.588;13.370;2023-07-02T04:03:52;3.70;;;3.40;;
9771;SDS011;4925;52.588;13.370;2023-07-02T04:06:19;4.03;;;3.60;;
9771;SDS011;4925;52.588;13.370;2023-07-02T04:08:44;5.17;;;3.03;;
9771;SDS011;4925;52.588;13.370;2023-07-02T04:11:10;5.33;;;3.10;;
9771;SDS011;4925;52.588;13.370;2023-07-02T04:13:37;6.07;;;3.47;;
9771;SDS011;4925;52.588;13.370;2023-07-02T04:16:03;5.70;;;3.03;;
9771;SDS011;4925;52.588;13.370;2023-07-02T04:18:29;6.27;;;3.00;;
9771;SDS011;4925;52.588;13.370;2023-07-02T04:20:55;2.97;;;2.77;;
9771;SDS011;4925;52.588;13.370;2023-07-02T04:23:21;5.30;;;3.10;;
9771;SDS011;4925;52.588;13.370;2023-07-02T04:25:47;7.40;;;3.33;;
9771;SDS011;4925;52.588;13.370;2023-07-02T04:28:13;4.10;;;2.73;;
9771;SDS011;4925;52.588;13.370;2023-07-02T04:30:38;4.53;;;3.03;;
9771;SDS011;4925;52.588;13.370;2023-07-02T04:33:04;6.50;;;3.00;;
9771;SDS011;4925;52.588;13.370;2023-07-02T04:35:32;4.10;;;2.47;;
9771;SDS011;4925;52.588;13.370;2023-07-02T04:37:59;3.87;;;3.10;;
9771;SDS011;4925;52.588;13.370;2023-07-02T04:40:25;2.97;;;2.77;;
9771;SDS011;4925;52.588;13.370;2023-07-02T04:42:52;3.00;;;2.73;;
9771;SDS011;4925;52.588;13.370;2023-07-02T04:45:23;3.10;;;2.90;;
9771;SDS011;4925;52.588;13.370;2023-07-02T04:47:57;4.10;;;3.00;;
9771;SDS011;4925;52.588;13.370;2023-07-02T04:50:22;8.17;;;2.80;;
9771;SDS011;4925;52.588;13.370;2023-07-02T04:52:48;6.83;;;3.30;;
9771;SDS011;4925;52.588;13.370;2023-07-02T04:55:14;7.40;;;3.10;;
9771;SDS011;4925;52.588;13.370;2023-07-02T04:57:39;3.90;;;2.60;;
9771;SDS011;4925;52.588;13.370;2023-07-02T05:00:06;3.80;;;3.30;;
9771;SDS011;4925;52.588;13.370;2023-07-02T05:02:33;4.00;;;2.50;;
9771;SDS011;4925;52.588;13.370;2023-07-02T05:04:59;3.50;;;3.00;;
9771;SDS011;4925;52.588;13.370;2023-07-02T05:07:24;5.03;;;2.70;;
9771;SDS011;4925;52.588;13.370;2023-07-02T05:09:50;3.93;;;2.83;;
9771;SDS011;4925;52.588;13.370;2023-07-02T05:12:18;3.83;;;2.80;;
9771;SDS011;4925;52.588;13.370;2023-07-02T05:14:44;6.00;;;3.00;;
9771;SDS011;4925;52.588;13.370;2023-07-02T05:17:10;9.70;;;2.73;;
9771;SDS011;4925;52.588;13.370;2023-07-02T05:19:36;6.73;;;2.27;;
9771;SDS011;4925;52.588;13.370;2023-07-02T05:22:01;5.00;;;2.67;;
9771;SDS011;4925;52.588;13.370;2023-07-02T05:24:27;4.77;;;3.03;;
9771;SDS011;4925;52.588;13.370;2023-07-02T05:26:53;9.37;;;3.00;;
9771;SDS011;4925;52.588;13.370;2023-07-02T05:29:19;5.07;;;2.80;;
9771;SDS011;4925;52.588;13.370;2023-07-02T05:31:44;3.07;;;2.40;;
9771;SDS011;4925;52.588;13.370;2023-07-02T05:34:10;4.77;;;2.37;;
9771;SDS011;4925;52.588;13.370;2023-07-02T05:36:36;3.70;;;2.87;;
9771;SDS011;4925;52.588;13.370;2023-07-02T05:39:02;3.20;;;2.50;;
9771;SDS011;4925;52.588;13.370;2023-07-02T05:41:28;4.03;;;2.10;;
9771;SDS011;4925;52.588;13.370;2023-07-02T05:43:58;4.80;;;2.57;;
9771;SDS011;4925;52.588;13.370;2023-07-02T05:46:24;3.00;;;2.50;;
9771;SDS011;4925;52.588;13.370;2023-07-02T05:48:50;5.80;;;2.43;;
9771;SDS011;4925;52.588;13.370;2023-07-02T05:51:22;6.77;;;2.40;;
9771;SDS011;4925;52.588;13.370;2023-07-02T05:53:49;3.83;;;2.37;;
9771;SDS011;4925;52.588;13.370;2023-07-02T05:56:15;5.53;;;2.40;;
9771;SDS011;4925;52.588;13.370;2023-07-02T05:58:42;5.80;;;2.00;;
9771;SDS011;4925;52.588;13.370;2023-07-02T06:01:08;3.83;;;2.10;;
9771;SDS011;4925;52.588;13.370;2023-07-02T06:03:33;5.87;;;2.10;;
9771;SDS011;4925;52.588;13.370;2023-07-02T06:05:59;3.67;;;2.03;;
9771;SDS011;4925;52.588;13.370;2023-07-02T06:08:25;10.63;;;3.13;;
9771;SDS011;4925;52.588;13.370;2023-07-02T06:10:50;3.50;;;2.00;;
9771;SDS011;4925;52.588;13.370;2023-07-02T06:13:16;3.33;;;1.87;;
9771;SDS011;4925;52.588;13.370;2023-07-02T06:15:42;2.50;;;2.30;;
9771;SDS011;4925;52.588;13.370;2023-07-02T06:18:08;2.07;;;1.87;;
9771;SDS011;4925;52.588;13.370;2023-07-02T06:20:34;4.33;;;1.73;;
9771;SDS011;4925;52.588;13.370;2023-07-02T06:23:00;3.53;;;2.37;;
9771;SDS011;4925;52.588;13.370;2023-07-02T06:25:25;4.47;;;2.53;;
9771;SDS011;4925;52.588;13.370;2023-07-02T06:27:51;3.77;;;2.30;;
9771;SDS011;4925;52.588;13.370;2023-07-02T06:30:21;6.47;;;2.50;;
9771;SDS011;4925;52.588;13.370;2023-07-02T06:32:47;4.90;;;2.77;;
9771;SDS011;4925;52.588;13.370;2023-07-02T06:35:12;4.63;;;2.00;;
9771;SDS011;4925;52.588;13.370;2023-07-02T06:37:38;4.50;;;1.93;;
9771;SDS011;4925;52.588;13.370;2023-07-02T06:40:04;8.00;;;2.30;;
9771;SDS011;4925;52.588;13.370;2023-07-02T06:42:30;5.20;;;2.17;;
9771;SDS011;4925;52.588;13.370;2023-07-02T06:44:57;2.67;;;2.20;;
9771;SDS011;4925;52.588;13.370;2023-07-02T06:47:24;2.78;;;2.05;;
9771;SDS011;4925;52.588;13.370;2023-07-02T06:49:51;6.60;;;2.70;;
9771;SDS011;4925;52.588;13.370;2023-07-02T06:52:17;4.45;;;2.58;;
9771;SDS011;4925;52.588;13.370;2023-07-02T06:54:43;4.35;;;2.80;;
9771;SDS011;4925;52.588;13.370;2023-07-02T06:57:08;3.53;;;2.00;;
9771;SDS011;4925;52.588;13.370;2023-07-02T06:59:34;4.97;;;2.60;;
9771;SDS011;4925;52.588;13.370;2023-07-02T07:01:59;3.88;;;2.28;;
9771;SDS011;4925;52.588;13.370;2023-07-02T07:04:26;2.90;;;2.15;;
9771;SDS011;4925;52.588;13.370;2023-07-02T07:06:53;2.25;;;2.10;;
9771;SDS011;4925;52.588;13.370;2023-07-02T07:09:20;2.72;;;2.53;;
9771;SDS011;4925;52.588;13.370;2023-07-02T07:11:46;3.17;;;2.38;;
9771;SDS011;4925;52.588;13.370;2023-07-02T07:14:12;4.13;;;2.42;;
9771;SDS011;4925;52.588;13.370;2023-07-02T07:16:37;7.20;;;2.42;;
9771;SDS011;4925;52.588;13.370;2023-07-02T07:19:03;2.72;;;2.42;;
9771;SDS011;4925;52.588;13.370;2023-07-02T07:21:29;4.03;;;2.38;;
9771;SDS011;4925;52.588;13.370;2023-07-02T07:23:55;4.40;;;2.53;;
9771;SDS011;4925;52.588;13.370;2023-07-02T07:26:20;4.88;;;2.35;;
9771;SDS011;4925;52.588;13.370;2023-07-02T07:28:46;2.95;;;2.65;;
9771;SDS011;4925;52.588;13.370;2023-07-02T07:31:12;3.08;;;2.45;;
9771;SDS011;4925;52.588;13.370;2023-07-02T07:33:37;3.00;;;2.70;;
9771;SDS011;4925;52.588;13.370;2023-07-02T07:36:03;5.38;;;2.67;;
9771;SDS011;4925;52.588;13.370;2023-07-02T07:38:29;3.38;;;2.53;;
9771;SDS011;4925;52.588;13.370;2023-07-02T07:40:55;3.90;;;2.60;;
9771;SDS011;4925;52.588;13.370;2023-07-02T07:43:21;9.50;;;2.50;;
9771;SDS011;4925;52.588;13.370;2023-07-02T07:45:46;4.07;;;2.72;;
9771;SDS011;4925;52.588;13.370;2023-07-02T07:48:12;3.33;;;3.03;;
9771;SDS011;4925;52.588;13.370;2023-07-02T07:50:38;6.05;;;2.70;;
9771;SDS011;4925;52.588;13.370;2023-07-02T07:53:03;3.00;;;2.25;;
9771;SDS011;4925;52.588;13.370;2023-07-02T07:55:29;5.40;;;2.25;;
9771;SDS011;4925;52.588;13.370;2023-07-02T07:57:55;3.38;;;2.47;;
9771;SDS011;4925;52.588;13.370;2023-07-02T08:00:20;5.68;;;2.80;;
9771;SDS011;4925;52.588;13.370;2023-07-02T08:02:46;2.60;;;2.40;;
9771;SDS011;4925;52.588;13.370;2023-07-02T08:05:12;4.30;;;2.38;;
9771;SDS011;4925;52.588;13.370;2023-07-02T08:07:38;3.60;;;2.30;;
9771;SDS011;4925;52.588;13.370;2023-07-02T08:10:05;2.97;;;2.08;;
9771;SDS011;4925;52.588;13.370;2023-07-02T08:12:33;6.50;;;2.75;;
9771;SDS011;4925;52.588;13.370;2023-07-02T08:14:59;3.75;;;2.17;;
9771;SDS011;4925;52.588;13.370;2023-07-02T08:17:24;7.63;;;2.53;;
9771;SDS011;4925;52.588;13.370;2023-07-02T08:19:50;3.72;;;2.42;;
9771;SDS011;4925;52.588;13.370;2023-07-02T08:22:16;4.85;;;3.08;;
9771;SDS011;4925;52.588;13.370;2023-07-02T08:24:41;4.97;;;3.15;;
9771;SDS011;4925;52.588;13.370;2023-07-02T08:27:07;11.90;;;3.10;;
9771;SDS011;4925;52.588;13.370;2023-07-02T08:29:33;4.50;;;2.92;;
9771;SDS011;4925;52.588;13.370;2023-07-02T08:31:59;4.25;;;2.88;;
9771;SDS011;4925;52.588;13.370;2023-07-02T08:34:25;5.43;;;2.65;;
9771;SDS011;4925;52.588;13.370;2023-07-02T08:36:51;4.43;;;2.40;;
9771;SDS011;4925;52.588;13.370;2023-07-02T08:39:17;6.57;;;2.75;;
9771;SDS011;4925;52.588;13.370;2023-07-02T08:41:43;7.32;;;2.58;;
9771;SDS011;4925;52.588;13.370;2023-07-02T08:44:09;7.78;;;3.08;;
9771;SDS011;4925;52.588;13.370;2023-07-02T08:46:37;4.75;;;2.75;;
9771;SDS011;4925;52.588;13.370;2023-07-02T08:49:02;3.22;;;2.75;;
9771;SDS011;4925;52.588;13.370;2023-07-02T08:51:28;3.92;;;2.92;;
9771;SDS011;4925;52.588;13.370;2023-07-02T08:53:54;4.18;;;2.58;;
9771;SDS011;4925;52.588;13.370;2023-07-02T08:56:20;4.85;;;2.85;;
9771;SDS011;4925;52.588;13.370;2023-07-02T08:58:45;5.10;;;3.40;;
9771;SDS011;4925;52.588;13.370;2023-07-02T09:01:12;3.85;;;2.83;;
9771;SDS011;4925;52.588;13.370;2023-07-02T09:03:39;6.75;;;4.00;;
9771;SDS011;4925;52.588;13.370;2023-07-02T09:06:06;5.68;;;3.33;;
9771;SDS011;4925;52.588;13.370;2023-07-02T09:08:33;6.80;;;3.30;;
9771;SDS011;4925;52.588;13.370;2023-07-02T09:11:15;5.63;;;3.60;;
9771;SDS011;4925;52.588;13.370;2023-07-02T09:13:51;6.85;;;4.72;;
9771;SDS011;4925;52.588;13.370;2023-07-02T09:16:26;3.75;;;3.05;;
9771;SDS011;4925;52.588;13.370;2023-07-02T09:21:43;4.80;;;3.38;;
9771;SDS011;4925;52.588;13.370;2023-07-02T09:29:21;7.45;;;3.80;;
9771;SDS011;4925;52.588;13.370;2023-07-02T09:32:03;10.20;;;4.05;;
9771;SDS011;4925;52.588;13.370;2023-07-02T09:34:33;8.35;;;3.95;;
9771;SDS011;4925;52.588;13.370;2023-07-02T09:37:00;6.97;;;4.85;;
9771;SDS011;4925;52.588;13.370;2023-07-02T09:41:56;7.13;;;4.57;;
9771;SDS011;4925;52.588;13.370;2023-07-02T09:44:30;7.13;;;4.28;;
9771;SDS011;4925;52.588;13.370;2023-07-02T09:47:07;13.13;;;5.00;;
9771;SDS011;4925;52.588;13.370;2023-07-02T09:52:05;9.90;;;5.38;;
9771;SDS011;4925;52.588;13.370;2023-07-02T09:54:32;7.55;;;4.88;;
9771;SDS011;4925;52.588;13.370;2023-07-02T09:56:59;9.02;;;4.80;;
9771;SDS011;4925;52.588;13.370;2023-07-02T09:59:25;7.15;;;4.60;;
9771;SDS011;4925;52.588;13.370;2023-07-02T10:01:51;8.13;;;4.82;;
9771;SDS011;4925;52.588;13.370;2023-07-02T10:04:18;8.30;;;5.18;;
9771;SDS011;4925;52.588;13.370;2023-07-02T10:06:50;5.95;;;4.38;;
9771;SDS011;4925;52.588;13.370;2023-07-02T10:09:19;10.60;;;5.13;;
9771;SDS011;4925;52.588;13.370;2023-07-02T10:11:45;12.73;;;5.18;;
9771;SDS011;4925;52.588;13.370;2023-07-02T10:14:11;9.73;;;4.10;;
9771;SDS011;4925;52.588;13.370;2023-07-02T10:19:19;12.13;;;4.82;;
9771;SDS011;4925;52.588;13.370;2023-07-02T10:21:45;7.07;;;4.75;;
9771;SDS011;4925;52.588;13.370;2023-07-02T10:26:56;11.32;;;5.05;;
9771;SDS011;4925;52.588;13.370;2023-07-02T10:29:24;19.13;;;8.50;;
9771;SDS011;4925;52.588;13.370;2023-07-02T10:31:51;14.60;;;4.88;;
9771;SDS011;4925;52.588;13.370;2023-07-02T10:34:31;8.13;;;5.43;;
9771;SDS011;4925;52.588;13.370;2023-07-02T10:36:59;10.20;;;4.97;;
9771;SDS011;4925;52.588;13.370;2023-07-02T10:39:26;10.57;;;5.13;;
9771;SDS011;4925;52.588;13.370;2023-07-02T10:42:02;7.55;;;5.03;;
9771;SDS011;4925;52.588;13.370;2023-07-02T10:44:29;13.35;;;5.68;;
9771;SDS011;4925;52.588;13.370;2023-07-02T10:46:55;8.13;;;5.10;;
9771;SDS011;4925;52.588;13.370;2023-07-02T10:49:29;11.82;;;4.80;;
9771;SDS011;4925;52.588;13.370;2023-07-02T10:51:58;9.43;;;4.97;;
9771;SDS011;4925;52.588;13.370;2023-07-02T10:54:25;12.02;;;5.03;;
9771;SDS011;4925;52.588;13.370;2023-07-02T10:56:55;13.23;;;5.32;;
9771;SDS011;4925;52.588;13.370;2023-07-02T10:59:25;6.88;;;4.70;;
9771;SDS011;4925;52.588;13.370;2023-07-02T11:01:51;11.18;;;5.18;;
9771;SDS011;4925;52.588;13.370;2023-07-02T11:04:16;10.25;;;5.18;;
9771;SDS011;4925;52.588;13.370;2023-07-02T11:06:43;12.65;;;5.32;;
9771;SDS011;4925;52.588;13.370;2023-07-02T11:09:15;11.68;;;5.28;;
9771;SDS011;4925;52.588;13.370;2023-07-02T11:11:53;10.32;;;5.30;;
9771;SDS011;4925;52.588;13.370;2023-07-02T11:14:28;12.15;;;5.18;;
9771;SDS011;4925;52.588;13.370;2023-07-02T11:16:57;9.18;;;5.95;;
9771;SDS011;4925;52.588;13.370;2023-07-02T11:19:23;10.07;;;5.03;;
9771;SDS011;4925;52.588;13.370;2023-07-02T11:21:50;9.27;;;5.32;;
9771;SDS011;4925;52.588;13.370;2023-07-02T11:24:25;8.13;;;5.35;;
9771;SDS011;4925;52.588;13.370;2023-07-02T11:26:53;11.18;;;5.93;;
9771;SDS011;4925;52.588;13.370;2023-07-02T11:29:18;10.32;;;6.15;;
9771;SDS011;4925;52.588;13.370;2023-07-02T11:31:44;11.55;;;5.78;;
9771;SDS011;4925;52.588;13.370;2023-07-02T11:34:13;8.60;;;5.30;;
9771;SDS011;4925;52.588;13.370;2023-07-02T11:36:40;12.63;;;5.88;;
9771;SDS011;4925;52.588;13.370;2023-07-02T11:39:05;14.05;;;5.80;;
9771;SDS011;4925;52.588;13.370;2023-07-02T11:41:38;9.27;;;5.47;;
9771;SDS011;4925;52.588;13.370;2023-07-02T11:44:08;12.98;;;5.72;;
9771;SDS011;4925;52.588;13.370;2023-07-02T11:46:34;9.65;;;6.07;;
9771;SDS011;4925;52.588;13.370;2023-07-02T11:49:00;11.50;;;5.78;;
9771;SDS011;4925;52.588;13.370;2023-07-02T11:51:26;12.32;;;5.90;;
9771;SDS011;4925;52.588;13.370;2023-07-02T11:53:51;10.32;;;5.72;;
9771;SDS011;4925;52.588;13.370;2023-07-02T11:56:17;13.55;;;6.07;;
9771;SDS011;4925;52.588;13.370;2023-07-02T11:58:43;9.77;;;5.93;;
9771;SDS011;4925;52.588;13.370;2023-07-02T12:01:08;14.60;;;5.90;;
9771;SDS011;4925;52.588;13.370;2023-07-02T12:03:34;16.67;;;6.45;;
9771;SDS011;4925;52.588;13.370;2023-07-02T12:06:00;10.00;;;6.32;;
9771;SDS011;4925;52.588;13.370;2023-07-02T12:08:26;14.15;;;6.40;;
9771;SDS011;4925;52.588;13.370;2023-07-02T12:10:51;11.00;;;5.68;;
9771;SDS011;4925;52.588;13.370;2023-07-02T12:13:17;14.07;;;7.28;;
9771;SDS011;4925;52.588;13.370;2023-07-02T12:15:43;10.45;;;5.82;;
9771;SDS011;4925;52.588;13.370;2023-07-02T12:18:09;14.88;;;5.32;;
9771;SDS011;4925;52.588;13.370;2023-07-02T12:20:35;15.57;;;5.40;;
9771;SDS011;4925;52.588;13.370;2023-07-02T12:23:01;12.40;;;5.70;;
9771;SDS011;4925;52.588;13.370;2023-07-02T12:25:26;12.45;;;6.10;;
9771;SDS011;4925;52.588;13.370;2023-07-02T12:27:52;9.00;;;5.55;;
9771;SDS011;4925;52.588;13.370;2023-07-02T12:30:18;8.20;;;5.32;;
9771;SDS011;4925;52.588;13.370;2023-07-02T12:32:44;12.00;;;5.93;;
9771;SDS011;4925;52.588;13.370;2023-07-02T12:35:10;8.10;;;5.43;;
9771;SDS011;4925;52.588;13.370;2023-07-02T12:37:43;13.57;;;6.57;;
9771;SDS011;4925;52.588;13.370;2023-07-02T12:40:13;11.15;;;6.22;;
9771;SDS011;4925;52.588;13.370;2023-07-02T12:42:40;10.07;;;5.35;;
9771;SDS011;4925;52.588;13.370;2023-07-02T12:45:06;9.73;;;5.97;;
9771;SDS011;4925;52.588;13.370;2023-07-02T12:47:33;14.70;;;6.25;;
9771;SDS011;4925;52.588;13.370;2023-07-02T12:49:59;10.18;;;5.50;;
9771;SDS011;4925;52.588;13.370;2023-07-02T12:52:24;10.45;;;6.28;;
9771;SDS011;4925;52.588;13.370;2023-07-02T12:54:50;12.57;;;5.88;;
9771;SDS011;4925;52.588;13.370;2023-07-02T12:57:17;9.48;;;6.20;;
9771;SDS011;4925;52.588;13.370;2023-07-02T12:59:43;10.95;;;6.35;;
9771;SDS011;4925;52.588;13.370;2023-07-02T13:02:09;14.60;;;6.13;;
9771;SDS011;4925;52.588;13.370;2023-07-02T13:04:35;13.27;;;6.72;;
9771;SDS011;4925;52.588;13.370;2023-07-02T13:07:01;11.45;;;5.22;;
9771;SDS011;4925;52.588;13.370;2023-07-02T13:09:27;12.15;;;6.00;;
9771;SDS011;4925;52.588;13.370;2023-07-02T13:11:53;10.13;;;6.10;;
9771;SDS011;4925;52.588;13.370;2023-07-02T13:14:19;12.50;;;6.10;;
9771;SDS011;4925;52.588;13.370;2023-07-02T13:16:44;11.68;;;6.38;;
9771;SDS011;4925;52.588;13.370;2023-07-02T13:19:10;11.35;;;5.93;;
9771;SDS011;4925;52.588;13.370;2023-07-02T13:21:37;12.65;;;6.20;;
9771;SDS011;4925;52.588;13.370;2023-07-02T13:24:02;10.40;;;5.97;;
9771;SDS011;4925;52.588;13.370;2023-07-02T13:26:28;11.48;;;6.32;;
9771;SDS011;4925;52.588;13.370;2023-07-02T13:28:54;13.05;;;5.90;;
9771;SDS011;4925;52.588;13.370;2023-07-02T13:31:19;12.10;;;5.90;;
9771;SDS011;4925;52.588;13.370;2023-07-02T13:33:45;12.07;;;6.13;;
9771;SDS011;4925;52.588;13.370;2023-07-02T13:36:11;12.75;;;6.78;;
9771;SDS011;4925;52.588;13.370;2023-07-02T13:38:37;9.20;;;5.90;;
9771;SDS011;4925;52.588;13.370;2023-07-02T13:41:03;10.18;;;5.70;;
9771;SDS011;4925;52.588;13.370;2023-07-02T13:43:30;14.65;;;7.13;;
9771;SDS011;4925;52.588;13.370;2023-07-02T13:45:55;10.98;;;6.40;;
9771;SDS011;4925;52.588;13.370;2023-07-02T13:48:21;11.32;;;6.25;;
9771;SDS011;4925;52.588;13.370;2023-07-02T13:50:47;11.15;;;6.03;;
9771;SDS011;4925;52.588;13.370;2023-07-02T13:53:13;11.93;;;5.85;;
9771;SDS011;4925;52.588;13.370;2023-07-02T13:55:47;12.15;;;5.25;;
9771;SDS011;4925;52.588;13.370;2023-07-02T13:58:13;10.73;;;6.55;;
9771;SDS011;4925;52.588;13.370;2023-07-02T14:00:39;11.07;;;5.95;;
9771;SDS011;4925;52.588;13.370;2023-07-02T14:03:05;10.13;;;5.95;;
9771;SDS011;4925;52.588;13.370;2023-07-02T14:05:31;11.43;;;5.90;;
9771;SDS011;4925;52.588;13.370;2023-07-02T14:07:57;10.43;;;5.72;;
9771;SDS011;4925;52.588;13.370;2023-07-02T14:10:23;7.82;;;5.18;;
9771;SDS011;4925;52.588;13.370;2023-07-02T14:12:49;7.70;;;5.63;;
9771;SDS011;4925;52.588;13.370;2023-07-02T14:15:14;14.75;;;6.82;;
9771;SDS011;4925;52.588;13.370;2023-07-02T14:17:40;14.77;;;6.15;;
9771;SDS011;4925;52.588;13.370;2023-07-02T14:20:07;12.55;;;5.95;;
9771;SDS011;4925;52.588;13.370;2023-07-02T14:22:33;8.43;;;5.60;;
9771;SDS011;4925;52.588;13.370;2023-07-02T14:24:59;8.70;;;6.13;;
9771;SDS011;4925;52.588;13.370;2023-07-02T14:27:24;9.10;;;5.75;;
9771;SDS011;4925;52.588;13.370;2023-07-02T14:29:50;9.93;;;6.25;;
9771;SDS011;4925;52.588;13.370;2023-07-02T14:32:16;12.15;;;5.93;;
9771;SDS011;4925;52.588;13.370;2023-07-02T14:34:42;10.75;;;5.55;;
9771;SDS011;4925;52.588;13.370;2023-07-02T14:37:07;11.05;;;6.20;;
9771;SDS011;4925;52.588;13.370;2023-07-02T14:39:33;9.93;;;5.25;;
9771;SDS011;4925;52.588;13.370;2023-07-02T14:41:59;14.93;;;7.00;;
9771;SDS011;4925;52.588;13.370;2023-07-02T14:44:25;11.20;;;6.18;;
9771;SDS011;4925;52.588;13.370;2023-07-02T14:46:50;11.07;;;6.30;;
9771;SDS011;4925;52.588;13.370;2023-07-02T14:49:16;11.65;;;5.40;;
9771;SDS011;4925;52.588;13.370;2023-07-02T14:51:42;10.07;;;5.60;;
9771;SDS011;4925;52.588;13.370;2023-07-02T14:54:09;9.38;;;5.72;;
9771;SDS011;4925;52.588;13.370;2023-07-02T14:56:35;8.15;;;5.57;;
9771;SDS011;4925;52.588;13.370;2023-07-02T14:59:04;10.20;;;5.72;;
9771;SDS011;4925;52.588;13.370;2023-07-02T15:01:31;11.10;;;5.03;;
9771;SDS011;4925;52.588;13.370;2023-07-02T15:03:57;8.70;;;4.85;;
9771;SDS011;4925;52.588;13.370;2023-07-02T15:06:23;10.75;;;5.57;;
9771;SDS011;4925;52.588;13.370;2023-07-02T15:08:50;7.68;;;5.03;;
9771;SDS011;4925;52.588;13.370;2023-07-02T15:11:17;8.70;;;5.00;;
9771;SDS011;4925;52.588;13.370;2023-07-02T15:13:43;12.05;;;4.93;;